createdAt,value
2022-10-16T00:04:20.129Z,54.10
2022-10-16T00:09:35.841Z,54.30
2022-10-16T00:14:50.841Z,54.10
2022-10-16T00:20:05.970Z,54.10
2022-10-16T00:25:20.867Z,54.20
2022-10-16T00:30:35.846Z,54.10
2022-10-16T00:35:50.933Z,54.20
2022-10-16T00:41:05.929Z,54.30
2022-10-16T00:46:21.192Z,54.50
2022-10-16T00:51:37.182Z,54.70
2022-10-16T00:56:52.894Z,54.40
2022-10-16T01:02:07.853Z,54.20
2022-10-16T01:07:23.354Z,54.00
2022-10-16T01:12:39.141Z,53.90
2022-10-16T01:17:56.197Z,53.80
2022-10-16T01:23:11.852Z,53.80
2022-10-16T01:28:27.255Z,53.70
2022-10-16T01:33:42.922Z,53.90
2022-10-16T01:38:57.851Z,53.70
2022-10-16T01:44:12.909Z,53.80
2022-10-16T01:49:28.198Z,53.70
2022-10-16T01:54:43.867Z,53.90
2022-10-16T01:59:59.074Z,54.20
2022-10-16T02:05:20.960Z,54.10
2022-10-16T02:10:35.939Z,54.20
2022-10-16T02:15:50.841Z,54.10
2022-10-16T02:21:05.854Z,54.00
2022-10-16T02:26:20.865Z,54.10
2022-10-16T02:31:35.878Z,54.20
2022-10-16T02:36:50.953Z,54.30
2022-10-16T02:42:06.175Z,54.30
2022-10-16T02:47:22.138Z,54.30
2022-10-16T02:52:37.892Z,54.40
2022-10-16T02:57:54.599Z,54.70
2022-10-16T03:03:12.014Z,54.80
2022-10-16T03:08:26.881Z,54.70
2022-10-16T03:13:41.852Z,54.60
2022-10-16T03:18:56.936Z,54.30
2022-10-16T03:24:11.878Z,54.20
2022-10-16T03:29:26.878Z,54.50
2022-10-16T03:34:41.903Z,54.70
2022-10-16T03:39:57.149Z,54.40
2022-10-16T03:45:12.873Z,54.20
2022-10-16T03:50:27.883Z,54.30
2022-10-16T03:55:42.870Z,54.30
2022-10-16T04:00:57.960Z,54.00
2022-10-16T04:06:13.192Z,54.10
2022-10-16T04:11:29.076Z,53.90
2022-10-16T04:16:44.917Z,54.00
2022-10-16T04:22:00.906Z,54.10
2022-10-16T04:27:15.889Z,53.90
2022-10-16T04:32:30.872Z,53.70
2022-10-16T04:37:46.215Z,53.60
2022-10-16T04:43:02.221Z,53.50
2022-10-16T04:48:18.215Z,53.50
2022-10-16T04:53:33.903Z,53.40
2022-10-16T04:58:49.891Z,53.50
2022-10-16T05:04:04.881Z,53.40
2022-10-16T05:09:19.873Z,53.20
2022-10-16T05:14:34.911Z,53.10
2022-10-16T05:19:50.174Z,53.00
2022-10-16T05:25:06.208Z,53.00
2022-10-16T05:30:21.908Z,53.00
2022-10-16T05:35:36.882Z,52.90
2022-10-16T05:40:51.890Z,52.90
2022-10-16T05:46:06.884Z,52.70
2022-10-16T05:51:22.245Z,52.90
2022-10-16T05:56:37.902Z,53.00
2022-10-16T06:01:52.895Z,53.00
2022-10-16T06:07:07.656Z,52.80
2022-10-16T06:12:22.914Z,52.90
2022-10-16T06:17:38.161Z,52.80
2022-10-16T06:22:54.896Z,53.00
2022-10-16T06:28:10.251Z,52.80
2022-10-16T06:33:25.903Z,52.40
2022-10-16T06:38:40.868Z,52.20
2022-10-16T06:43:56.230Z,52.10
2022-10-16T06:49:12.201Z,52.00
2022-10-16T06:54:28.192Z,52.50
2022-10-16T06:59:46.835Z,52.40
2022-10-16T07:05:02.215Z,52.60
2022-10-16T07:10:18.493Z,52.90
2022-10-16T07:15:34.216Z,53.10
2022-10-16T07:20:50.211Z,53.30
2022-10-16T07:26:05.878Z,53.50
2022-10-16T07:31:20.900Z,53.70
2022-10-16T07:36:36.050Z,53.80
2022-10-16T07:41:50.900Z,53.90
2022-10-16T07:47:06.212Z,54.10
2022-10-16T07:52:22.178Z,55.50
2022-10-16T07:57:38.243Z,55.60
2022-10-16T08:02:53.899Z,55.70
2022-10-16T08:08:09.221Z,55.90
2022-10-16T08:13:24.892Z,56.00
2022-10-16T08:18:39.917Z,56.00
2022-10-16T08:23:58.079Z,56.10
2022-10-16T08:29:13.906Z,56.30
2022-10-16T08:34:29.249Z,56.80
2022-10-16T08:39:44.909Z,57.10
2022-10-16T08:44:59.904Z,57.10
2022-10-16T08:50:14.895Z,57.00
2022-10-16T08:55:29.906Z,57.10
2022-10-16T09:00:44.961Z,57.20
2022-10-16T09:05:59.912Z,57.80
2022-10-16T09:11:51.941Z,57.30
2022-10-16T09:22:21.943Z,57.40
2022-10-16T09:27:36.922Z,57.30
2022-10-16T09:32:51.905Z,57.30
2022-10-16T09:38:06.880Z,57.50
2022-10-16T09:43:21.931Z,57.90
2022-10-16T09:48:36.919Z,58.10
2022-10-16T09:59:07.653Z,58.40
2022-10-16T10:04:23.203Z,58.40
2022-10-16T10:09:38.940Z,58.30
2022-10-16T10:14:53.929Z,58.30
2022-10-16T10:20:08.887Z,58.30
2022-10-16T10:25:23.970Z,58.30
2022-10-16T10:30:38.911Z,58.30
2022-10-16T10:35:53.904Z,58.20
2022-10-16T10:41:08.653Z,58.10
2022-10-16T10:46:23.738Z,58.10
2022-10-16T10:51:38.976Z,58.10
2022-10-16T10:56:53.932Z,57.90
2022-10-16T11:02:09.959Z,57.90
2022-10-16T11:07:25.479Z,57.90
2022-10-16T11:12:40.951Z,58.00
2022-10-16T11:17:55.954Z,58.00
2022-10-16T11:23:11.304Z,57.80
2022-10-16T11:28:30.870Z,57.70
2022-10-16T11:33:46.932Z,57.60
2022-10-16T11:39:01.923Z,57.30
2022-10-16T11:44:17.253Z,57.30
2022-10-16T11:49:32.944Z,57.10
2022-10-16T11:54:47.896Z,57.10
2022-10-16T12:00:03.011Z,57.00
2022-10-16T12:05:20.945Z,56.90
2022-10-16T12:10:36.111Z,56.90
2022-10-16T12:15:59.235Z,56.80
2022-10-16T12:21:16.294Z,56.70
2022-10-16T12:26:31.997Z,55.90
2022-10-16T12:31:57.584Z,55.60
2022-10-16T12:37:13.215Z,55.00
2022-10-16T12:42:29.572Z,54.80
2022-10-16T12:47:44.937Z,54.50
2022-10-16T12:53:00.197Z,54.60
2022-10-16T12:58:15.901Z,54.60
2022-10-16T13:03:30.911Z,54.60
2022-10-16T13:08:45.910Z,54.60
2022-10-16T13:14:01.225Z,54.60
2022-10-16T13:19:16.932Z,54.60
2022-10-16T13:24:32.237Z,54.50
2022-10-16T13:29:47.948Z,54.60
2022-10-16T13:35:02.951Z,54.50
2022-10-16T13:40:18.004Z,54.50
2022-10-16T13:45:32.910Z,54.40
2022-10-16T13:50:47.929Z,54.40
2022-10-16T13:56:03.236Z,54.30
2022-10-16T14:01:19.349Z,54.30
2022-10-16T14:06:34.923Z,54.20
2022-10-16T14:11:49.947Z,54.10
2022-10-16T14:17:04.955Z,54.00
2022-10-16T14:22:20.257Z,54.00
2022-10-16T14:27:35.985Z,54.00
2022-10-16T14:32:51.244Z,53.90
2022-10-16T14:38:06.932Z,53.90
2022-10-16T14:43:22.212Z,53.80
2022-10-16T14:48:38.022Z,53.80
2022-10-16T14:53:56.532Z,53.70
2022-10-16T14:59:14.047Z,54.10
2022-10-16T15:04:28.710Z,54.10
2022-10-16T15:09:48.138Z,54.20
2022-10-16T15:15:04.999Z,54.30
2022-10-16T15:20:20.245Z,54.30
2022-10-16T15:25:36.273Z,54.30
2022-10-16T15:30:51.927Z,54.40
2022-10-16T15:36:06.946Z,54.60
2022-10-16T15:41:22.025Z,54.70
2022-10-16T15:46:36.970Z,54.70
2022-10-16T15:51:51.961Z,54.80
2022-10-16T15:57:06.997Z,55.00
2022-10-16T16:02:22.324Z,55.00
2022-10-16T16:07:38.275Z,55.10
2022-10-16T16:12:53.926Z,55.20
2022-10-16T16:18:08.997Z,55.40
2022-10-16T16:23:23.990Z,55.40
2022-10-16T16:28:38.731Z,55.50
2022-10-16T16:33:53.693Z,55.60
2022-10-16T16:39:08.893Z,55.70
2022-10-16T16:44:23.948Z,55.80
2022-10-16T16:49:38.969Z,55.90
2022-10-16T16:54:54.250Z,56.00
2022-10-16T17:00:09.946Z,56.20
2022-10-16T17:05:24.958Z,56.30
2022-10-16T17:10:39.962Z,56.30
2022-10-16T17:15:55.196Z,56.20
2022-10-16T17:21:09.983Z,56.20
2022-10-16T17:26:24.960Z,56.20
2022-10-16T17:31:40.013Z,56.20
2022-10-16T17:36:54.982Z,56.30
2022-10-16T17:42:10.023Z,56.30
2022-10-16T17:47:24.981Z,56.30
2022-10-16T17:52:40.260Z,56.40
2022-10-16T17:57:55.940Z,56.50
2022-10-16T18:03:10.857Z,56.50
2022-10-16T18:08:28.675Z,56.70
2022-10-16T18:13:45.107Z,56.90
2022-10-16T18:18:59.929Z,57.20
2022-10-16T18:24:15.272Z,57.50
2022-10-16T18:29:31.038Z,57.80
2022-10-16T18:34:45.932Z,58.10
2022-10-16T18:40:00.948Z,58.30
2022-10-16T18:45:17.299Z,58.60
2022-10-16T18:50:33.376Z,58.80
2022-10-16T18:55:49.315Z,58.80
2022-10-16T19:01:05.095Z,59.10
2022-10-16T19:06:20.358Z,59.30
2022-10-16T19:11:37.934Z,59.50
2022-10-16T19:16:56.273Z,59.70
2022-10-16T19:22:11.947Z,59.80
2022-10-16T19:27:27.205Z,59.80
2022-10-16T19:32:42.752Z,59.80
2022-10-16T19:37:57.992Z,59.70
2022-10-16T19:43:12.941Z,59.60
2022-10-16T19:48:28.254Z,59.50
2022-10-16T19:53:44.295Z,59.50
2022-10-16T19:59:00.011Z,59.50
2022-10-16T20:04:15.088Z,59.60
2022-10-16T20:09:30.275Z,59.50
2022-10-16T20:14:46.004Z,59.60
2022-10-16T20:20:01.012Z,59.70
2022-10-16T20:25:19.344Z,59.70
2022-10-16T20:30:34.993Z,59.70
2022-10-16T20:35:49.974Z,59.70
2022-10-16T20:41:04.939Z,59.70
2022-10-16T20:46:20.024Z,59.70
2022-10-16T20:51:34.954Z,59.90
2022-10-16T20:56:50.274Z,60.40
2022-10-16T21:02:08.707Z,60.30
2022-10-16T21:07:27.113Z,60.20
2022-10-16T21:12:43.267Z,60.20
2022-10-16T21:17:59.067Z,60.10
2022-10-16T21:23:13.953Z,60.00
2022-10-16T21:28:28.807Z,60.00
2022-10-16T21:33:44.221Z,59.90
2022-10-16T21:39:01.225Z,59.90
2022-10-16T21:44:17.952Z,59.90
2022-10-16T21:49:32.734Z,60.00
2022-10-16T21:54:48.057Z,60.00
2022-10-16T22:00:05.504Z,60.10
2022-10-16T22:05:23.953Z,60.10
2022-10-16T22:10:38.975Z,60.20
2022-10-16T22:15:54.286Z,60.30
2022-10-16T22:21:09.733Z,60.50
2022-10-16T22:26:25.019Z,60.60
2022-10-16T22:31:40.256Z,60.80
2022-10-16T22:36:55.724Z,61.00
2022-10-16T22:42:10.991Z,60.80
2022-10-16T22:47:26.555Z,60.90
2022-10-16T22:52:41.947Z,60.90
2022-10-16T22:57:57.250Z,61.00
2022-10-16T23:03:13.010Z,61.20
2022-10-16T23:08:27.985Z,61.30
2022-10-16T23:13:43.035Z,61.30
2022-10-16T23:18:58.345Z,61.30
2022-10-16T23:24:14.230Z,61.10
2022-10-16T23:29:29.974Z,61.10
2022-10-16T23:34:45.317Z,61.30
2022-10-16T23:40:01.355Z,61.40
2022-10-16T23:45:16.994Z,61.20
2022-10-16T23:50:31.960Z,61.10
2022-10-16T23:55:47.267Z,61.10
